createdAt,value
2019-01-20T00:01:07.028Z,-2.10
2019-01-20T00:03:36.011Z,-2.10
2019-01-20T00:06:04.992Z,-2.10
2019-01-20T00:08:34.008Z,-2.20
2019-01-20T00:11:04.517Z,-2.20
2019-01-20T00:13:33.560Z,-2.20
2019-01-20T00:16:02.556Z,-2.30
2019-01-20T00:18:31.604Z,-2.30
2019-01-20T00:21:00.515Z,-2.30
2019-01-20T00:23:29.494Z,-2.30
2019-01-20T00:25:58.414Z,-2.40
2019-01-20T00:28:27.407Z,-2.40
2019-01-20T00:30:57.710Z,-2.40
2019-01-20T00:33:26.710Z,-2.40
2019-01-20T00:35:55.693Z,-2.40
2019-01-20T00:38:24.604Z,-2.40
2019-01-20T00:40:53.534Z,-2.40
2019-01-20T00:43:22.456Z,-2.40
2019-01-20T00:45:51.422Z,-2.40
2019-01-20T00:48:20.407Z,-2.50
2019-01-20T00:50:49.408Z,-2.50
2019-01-20T00:53:18.429Z,-2.50
2019-01-20T00:55:47.487Z,-2.50
2019-01-20T00:58:16.512Z,-2.50
2019-01-20T01:00:45.453Z,-2.50
2019-01-20T01:03:14.428Z,-2.50
2019-01-20T01:05:43.448Z,-2.60
2019-01-20T01:08:12.834Z,-2.60
2019-01-20T01:10:41.900Z,-2.60
2019-01-20T01:13:11.284Z,-2.60
2019-01-20T01:15:40.289Z,-2.60
2019-01-20T01:18:12.300Z,-2.60
2019-01-20T01:20:41.400Z,-2.60
2019-01-20T01:23:10.394Z,-2.60
2019-01-20T01:25:39.367Z,-2.70
2019-01-20T01:28:08.363Z,-2.70
2019-01-20T01:30:37.329Z,-2.70
2019-01-20T01:33:06.607Z,-2.70
2019-01-20T01:35:35.497Z,-2.80
2019-01-20T01:38:04.590Z,-2.80
2019-01-20T01:40:33.529Z,-2.80
2019-01-20T01:43:02.626Z,-2.80
2019-01-20T01:45:31.640Z,-2.80
2019-01-20T01:48:00.707Z,-2.80
2019-01-20T01:50:29.676Z,-2.80
2019-01-20T01:52:58.675Z,-2.80
2019-01-20T01:55:27.675Z,-2.80
2019-01-20T01:57:56.595Z,-2.80
2019-01-20T02:00:25.585Z,-2.90
2019-01-20T02:02:54.548Z,-2.90
2019-01-20T02:05:23.544Z,-2.80
2019-01-20T02:07:52.478Z,-2.80
2019-01-20T02:10:22.200Z,-2.80
2019-01-20T02:12:51.968Z,-2.80
2019-01-20T02:15:21.707Z,-2.80
2019-01-20T02:17:51.192Z,-2.80
2019-01-20T02:20:22.252Z,-2.80
2019-01-20T02:22:51.513Z,-2.90
2019-01-20T02:25:20.484Z,-2.90
2019-01-20T02:27:51.141Z,-2.90
2019-01-20T02:30:22.295Z,-2.90
2019-01-20T02:32:51.208Z,-2.80
2019-01-20T02:35:20.189Z,-2.90
2019-01-20T02:37:49.083Z,-2.90
2019-01-20T02:40:18.111Z,-2.80
2019-01-20T02:42:47.082Z,-2.80
2019-01-20T02:45:16.173Z,-2.80
2019-01-20T02:47:45.157Z,-2.80
2019-01-20T02:50:15.406Z,-2.80
2019-01-20T02:52:44.452Z,-2.80
2019-01-20T02:55:13.477Z,-2.80
2019-01-20T02:57:42.490Z,-2.80
2019-01-20T03:00:19.958Z,-2.80
2019-01-20T03:02:49.453Z,-2.90
2019-01-20T03:05:19.384Z,-2.90
2019-01-20T03:07:48.398Z,-2.90
2019-01-20T03:10:17.501Z,-2.90
2019-01-20T03:12:46.473Z,-2.90
2019-01-20T03:15:15.798Z,-2.90
2019-01-20T03:17:44.792Z,-3.00
2019-01-20T03:20:16.098Z,-3.00
2019-01-20T03:22:45.064Z,-3.00
2019-01-20T03:25:15.183Z,-3.10
2019-01-20T03:27:44.244Z,-3.10
2019-01-20T03:30:15.843Z,-3.10
2019-01-20T03:32:44.813Z,-3.10
2019-01-20T03:35:14.172Z,-3.20
2019-01-20T03:37:43.155Z,-3.20
2019-01-20T03:40:13.773Z,-3.20
2019-01-20T03:42:42.811Z,-3.20
2019-01-20T03:45:16.451Z,-3.20
2019-01-20T03:47:45.492Z,-3.20
2019-01-20T03:50:15.489Z,-3.20
2019-01-20T03:52:44.485Z,-3.20
2019-01-20T03:55:14.644Z,-3.20
2019-01-20T03:57:43.661Z,-3.20
2019-01-20T04:00:23.677Z,-3.30
2019-01-20T04:02:56.083Z,-3.30
2019-01-20T04:05:25.063Z,-3.30
2019-01-20T04:07:54.050Z,-3.30
2019-01-20T04:10:23.033Z,-3.30
2019-01-20T04:12:52.055Z,-3.30
2019-01-20T04:15:21.054Z,-3.30
2019-01-20T04:17:49.912Z,-3.40
2019-01-20T04:20:18.945Z,-3.40
2019-01-20T04:22:47.916Z,-3.60
2019-01-20T04:25:17.777Z,-3.50
2019-01-20T04:27:46.767Z,-3.50
2019-01-20T04:30:17.565Z,-3.50
2019-01-20T04:32:46.415Z,-3.50
2019-01-20T04:35:15.489Z,-3.60
2019-01-20T04:37:44.679Z,-3.50
2019-01-20T04:40:16.151Z,-3.60
2019-01-20T04:42:45.202Z,-3.60
2019-01-20T04:45:14.688Z,-3.60
2019-01-20T04:47:43.697Z,-3.60
2019-01-20T04:50:14.601Z,-3.70
2019-01-20T04:52:43.641Z,-3.70
2019-01-20T04:55:12.976Z,-3.70
2019-01-20T04:57:42.684Z,-3.70
2019-01-20T05:00:16.233Z,-3.70
2019-01-20T05:02:45.209Z,-3.80
2019-01-20T05:05:14.196Z,-3.80
2019-01-20T05:07:43.170Z,-3.80
2019-01-20T05:10:13.536Z,-3.80
2019-01-20T05:12:42.476Z,-3.70
2019-01-20T05:15:13.707Z,-3.80
2019-01-20T05:17:42.668Z,-3.80
2019-01-20T05:20:11.834Z,-3.80
2019-01-20T05:22:40.676Z,-3.80
2019-01-20T05:25:09.764Z,-3.80
2019-01-20T05:27:38.685Z,-3.80
2019-01-20T05:30:10.970Z,-3.80
2019-01-20T05:32:39.893Z,-3.80
2019-01-20T05:35:09.333Z,-3.80
2019-01-20T05:37:38.340Z,-3.80
2019-01-20T05:40:08.650Z,-3.70
2019-01-20T05:42:45.648Z,-3.80
2019-01-20T05:45:14.905Z,-3.80
2019-01-20T05:47:43.892Z,-3.80
2019-01-20T05:50:13.534Z,-3.80
2019-01-20T05:52:43.773Z,-3.80
2019-01-20T05:55:12.880Z,-3.80
2019-01-20T05:57:41.818Z,-3.80
2019-01-20T06:00:16.835Z,-3.80
2019-01-20T06:02:46.599Z,-3.80
2019-01-20T06:05:15.577Z,-3.80
2019-01-20T06:07:44.499Z,-3.80
2019-01-20T06:10:13.506Z,-3.90
2019-01-20T06:12:42.431Z,-3.90
2019-01-20T06:15:14.038Z,-3.80
2019-01-20T06:17:43.010Z,-3.90
2019-01-20T06:20:12.006Z,-3.80
2019-01-20T06:22:40.987Z,-3.90
2019-01-20T06:25:10.068Z,-3.90
2019-01-20T06:27:38.974Z,-3.90
2019-01-20T06:30:17.144Z,-3.80
2019-01-20T06:32:46.054Z,-3.80
2019-01-20T06:35:15.357Z,-3.80
2019-01-20T06:37:44.361Z,-3.80
2019-01-20T06:40:13.432Z,-3.80
2019-01-20T06:42:42.355Z,-3.80
2019-01-20T06:45:13.764Z,-3.80
2019-01-20T06:47:42.749Z,-3.80
2019-01-20T06:50:13.225Z,-3.80
2019-01-20T06:52:43.175Z,-3.80
2019-01-20T06:55:12.818Z,-3.80
2019-01-20T06:57:41.909Z,-3.80
2019-01-20T07:00:16.120Z,-3.80
2019-01-20T07:02:45.116Z,-3.80
2019-01-20T07:05:14.312Z,-3.80
2019-01-20T07:07:43.370Z,-3.80
2019-01-20T07:10:13.585Z,-3.80
2019-01-20T07:12:42.630Z,-3.80
2019-01-20T07:15:14.269Z,-3.80
2019-01-20T07:17:43.319Z,-3.80
2019-01-20T07:20:12.302Z,-3.80
2019-01-20T07:22:41.310Z,-3.80
2019-01-20T07:25:10.301Z,-3.80
2019-01-20T07:27:39.263Z,-3.80
2019-01-20T07:30:11.182Z,-3.80
2019-01-20T07:32:40.176Z,-3.80
2019-01-20T07:35:09.716Z,-3.80
2019-01-20T07:37:38.657Z,-3.80
2019-01-20T07:40:09.284Z,-3.90
2019-01-20T07:42:41.376Z,-3.90
2019-01-20T07:45:14.542Z,-3.90
2019-01-20T07:47:43.533Z,-3.90
2019-01-20T07:50:15.252Z,-3.90
2019-01-20T07:52:44.205Z,-3.90
2019-01-20T07:55:13.258Z,-3.90
2019-01-20T07:57:42.332Z,-3.90
2019-01-20T08:00:14.026Z,-3.90
2019-01-20T08:02:43.023Z,-3.90
2019-01-20T08:05:12.219Z,-3.90
2019-01-20T08:07:41.236Z,-3.90
2019-01-20T08:10:13.770Z,-3.80
2019-01-20T08:12:42.876Z,-3.80
2019-01-20T08:15:12.286Z,-3.80
2019-01-20T08:17:41.301Z,-3.80
2019-01-20T08:20:13.004Z,-3.70
2019-01-20T08:22:42.211Z,-3.80
2019-01-20T08:25:11.814Z,-3.80
2019-01-20T08:27:41.036Z,-3.70
2019-01-20T08:30:12.622Z,-3.60
2019-01-20T08:32:41.656Z,-3.60
2019-01-20T08:35:12.592Z,-3.60
2019-01-20T08:37:41.716Z,-3.60
2019-01-20T08:40:13.893Z,-3.50
2019-01-20T08:42:42.942Z,-3.50
2019-01-20T08:45:19.217Z,-3.50
2019-01-20T08:47:52.478Z,-3.40
2019-01-20T08:50:21.565Z,-3.40
2019-01-20T08:52:51.841Z,-3.30
2019-01-20T08:55:20.836Z,-3.30
2019-01-20T08:57:52.381Z,-3.20
2019-01-20T09:00:21.382Z,-3.20
2019-01-20T09:02:50.300Z,-3.10
2019-01-20T09:05:19.288Z,-3.00
2019-01-20T09:07:48.211Z,-3.00
2019-01-20T09:10:25.710Z,-2.90
2019-01-20T09:12:55.659Z,-2.90
2019-01-20T09:15:24.731Z,-2.80
2019-01-20T09:17:53.746Z,-2.80
2019-01-20T09:20:22.767Z,-2.70
2019-01-20T09:22:51.802Z,-2.70
2019-01-20T09:25:20.828Z,-2.60
2019-01-20T09:27:50.646Z,-2.50
2019-01-20T09:30:20.764Z,-2.50
2019-01-20T09:32:49.736Z,-2.40
2019-01-20T09:35:19.006Z,-2.40
2019-01-20T09:37:48.062Z,-2.30
2019-01-20T09:40:17.065Z,-2.20
2019-01-20T09:42:46.071Z,-2.20
2019-01-20T09:45:25.221Z,-2.10
2019-01-20T09:47:54.247Z,-2.00
2019-01-20T09:50:23.341Z,-2.00
2019-01-20T09:52:53.801Z,-1.90
2019-01-20T09:55:22.922Z,-1.90
2019-01-20T09:57:51.965Z,-1.80
2019-01-20T10:00:22.026Z,-1.80
2019-01-20T10:02:51.000Z,-1.70
2019-01-20T10:05:20.006Z,-1.70
2019-01-20T10:07:48.932Z,-1.60
2019-01-20T10:10:18.260Z,-1.60
2019-01-20T10:12:47.281Z,-1.50
2019-01-20T10:15:16.551Z,-1.40
2019-01-20T10:17:45.650Z,-1.40
2019-01-20T10:20:19.873Z,-1.30
2019-01-20T10:22:48.911Z,-1.30
2019-01-20T10:25:17.907Z,-1.20
2019-01-20T10:27:46.951Z,-1.20
2019-01-20T10:30:24.440Z,-1.10
2019-01-20T10:32:53.541Z,-1.10
2019-01-20T10:35:26.270Z,-1.00
2019-01-20T10:37:56.092Z,-1.00
2019-01-20T10:40:25.021Z,-0.90
2019-01-20T10:42:53.916Z,-0.90
2019-01-20T10:45:22.908Z,-0.80
2019-01-20T10:47:51.871Z,-0.70
2019-01-20T10:50:20.881Z,-0.70
2019-01-20T10:52:49.917Z,-0.60
2019-01-20T10:55:19.061Z,-0.50
2019-01-20T10:57:48.079Z,-0.50
2019-01-20T11:00:20.607Z,-0.40
2019-01-20T11:02:49.568Z,-0.40
2019-01-20T11:05:25.099Z,-0.30
2019-01-20T11:07:49.281Z,-0.30
2019-01-20T11:10:18.573Z,-0.30
2019-01-20T11:12:47.577Z,-0.20
2019-01-20T11:15:16.935Z,-0.10
2019-01-20T11:17:45.924Z,-0.10
2019-01-20T11:20:15.364Z,-0.10
2019-01-20T11:22:44.360Z,-0.10
2019-01-20T11:25:16.284Z,0.00
2019-01-20T11:27:45.389Z,0.00
2019-01-20T11:30:14.596Z,0.10
2019-01-20T11:32:43.671Z,0.10
2019-01-20T11:35:14.617Z,0.10
2019-01-20T11:37:43.824Z,0.10
2019-01-20T11:40:13.355Z,0.20
2019-01-20T11:42:42.367Z,0.20
2019-01-20T11:45:15.224Z,0.30
2019-01-20T11:47:44.194Z,0.30
2019-01-20T11:50:13.246Z,0.30
2019-01-20T11:52:42.238Z,0.30
2019-01-20T11:55:12.124Z,0.30
2019-01-20T11:57:41.145Z,0.40
2019-01-20T12:00:15.659Z,0.40
2019-01-20T12:02:44.706Z,0.50
2019-01-20T12:05:14.242Z,0.50
2019-01-20T12:07:43.231Z,0.50
2019-01-20T12:10:12.733Z,0.60
2019-01-20T12:12:42.765Z,0.60
2019-01-20T12:15:12.319Z,0.60
2019-01-20T12:17:41.325Z,0.60
2019-01-20T12:20:11.066Z,0.60
2019-01-20T12:22:40.176Z,0.70
2019-01-20T12:25:12.069Z,0.70
2019-01-20T12:27:40.997Z,0.70
2019-01-20T12:30:14.209Z,0.80
2019-01-20T12:32:43.161Z,0.90
2019-01-20T12:35:12.292Z,0.90
2019-01-20T12:37:41.249Z,1.00
2019-01-20T12:40:16.241Z,1.00
2019-01-20T12:42:45.213Z,1.00
2019-01-20T12:45:14.451Z,1.00
2019-01-20T12:47:43.361Z,1.10
2019-01-20T12:50:13.589Z,1.10
2019-01-20T12:52:42.630Z,1.20
2019-01-20T12:55:11.933Z,1.20
2019-01-20T12:57:40.984Z,1.30
2019-01-20T13:00:12.763Z,1.20
2019-01-20T13:02:41.781Z,1.30
2019-01-20T13:05:10.757Z,1.30
2019-01-20T13:07:39.736Z,1.30
2019-01-20T13:10:10.184Z,1.40
2019-01-20T13:12:39.160Z,1.50
2019-01-20T13:15:10.268Z,1.50
2019-01-20T13:17:39.279Z,1.40
2019-01-20T13:20:10.962Z,1.50
2019-01-20T13:22:40.009Z,1.50
2019-01-20T13:25:10.817Z,1.60
2019-01-20T13:27:39.754Z,1.60
2019-01-20T13:30:12.373Z,1.60
2019-01-20T13:32:41.558Z,1.70
2019-01-20T13:35:10.673Z,1.70
2019-01-20T13:37:41.887Z,1.70
2019-01-20T13:40:13.908Z,1.70
2019-01-20T13:42:42.925Z,1.70
2019-01-20T13:45:13.065Z,1.70
2019-01-20T13:47:48.469Z,1.70
2019-01-20T13:50:14.992Z,1.80
2019-01-20T13:52:44.012Z,1.80
2019-01-20T13:55:13.126Z,1.80
2019-01-20T13:57:42.140Z,1.80
2019-01-20T14:00:16.968Z,1.90
2019-01-20T14:02:45.978Z,1.90
2019-01-20T14:05:15.035Z,1.90
2019-01-20T14:07:44.017Z,1.90
2019-01-20T14:10:14.560Z,2.10
2019-01-20T14:12:43.424Z,2.20
2019-01-20T14:15:13.329Z,2.10
2019-01-20T14:17:42.321Z,2.10
2019-01-20T14:20:19.129Z,2.10
2019-01-20T14:22:48.108Z,2.10
2019-01-20T14:25:19.248Z,2.00
2019-01-20T14:27:48.232Z,1.90
2019-01-20T14:30:19.440Z,1.90
2019-01-20T14:32:48.412Z,2.00
2019-01-20T14:35:17.456Z,2.00
2019-01-20T14:37:46.343Z,2.00
2019-01-20T14:40:15.817Z,2.00
2019-01-20T14:42:44.871Z,1.90
2019-01-20T14:45:14.587Z,1.90
2019-01-20T14:47:43.539Z,1.90
2019-01-20T14:50:15.966Z,1.90
2019-01-20T14:52:45.007Z,1.90
2019-01-20T14:55:13.991Z,1.90
2019-01-20T14:57:42.890Z,1.90
2019-01-20T15:00:15.445Z,1.90
2019-01-20T15:02:44.527Z,1.90
2019-01-20T15:05:13.637Z,1.90
2019-01-20T15:07:42.639Z,1.90
2019-01-20T15:10:11.877Z,1.90
2019-01-20T15:12:40.877Z,1.90
2019-01-20T15:15:11.903Z,1.90
2019-01-20T15:17:40.870Z,1.90
2019-01-20T15:20:10.368Z,1.80
2019-01-20T15:22:39.276Z,1.80
2019-01-20T15:25:09.772Z,1.80
2019-01-20T15:27:38.780Z,1.70
2019-01-20T15:30:12.651Z,1.80
2019-01-20T15:32:41.640Z,1.70
2019-01-20T15:35:10.628Z,1.60
2019-01-20T15:37:39.578Z,1.60
2019-01-20T15:40:10.108Z,1.60
2019-01-20T15:42:39.094Z,1.60
2019-01-20T15:45:16.552Z,1.60
2019-01-20T15:47:43.566Z,1.50
2019-01-20T15:50:18.189Z,1.50
2019-01-20T15:52:47.197Z,1.50
2019-01-20T15:55:16.185Z,1.50
2019-01-20T15:57:45.161Z,1.50
2019-01-20T16:00:25.359Z,1.40
2019-01-20T16:02:54.470Z,1.40
2019-01-20T16:05:24.659Z,1.30
2019-01-20T16:07:53.674Z,1.20
2019-01-20T16:10:22.643Z,1.20
2019-01-20T16:12:51.513Z,1.10
2019-01-20T16:15:24.646Z,1.00
2019-01-20T16:17:55.081Z,1.00
2019-01-20T16:20:24.131Z,0.90
2019-01-20T16:22:53.154Z,0.90
2019-01-20T16:25:24.426Z,0.80
2019-01-20T16:27:53.409Z,0.80
2019-01-20T16:30:24.712Z,0.80
2019-01-20T16:32:53.706Z,0.70
2019-01-20T16:35:22.734Z,0.70
2019-01-20T16:37:51.705Z,0.70
2019-01-20T16:40:21.647Z,0.60
2019-01-20T16:42:50.619Z,0.60
2019-01-20T16:45:22.017Z,0.60
2019-01-20T16:47:51.023Z,0.50
2019-01-20T16:50:21.491Z,0.50
2019-01-20T16:52:54.553Z,0.50
2019-01-20T16:55:21.212Z,0.40
2019-01-20T16:57:50.188Z,0.40
2019-01-20T17:00:24.614Z,0.40
2019-01-20T17:02:53.813Z,0.50
2019-01-20T17:05:26.848Z,0.50
2019-01-20T17:07:53.545Z,0.40
2019-01-20T17:10:25.658Z,0.30
2019-01-20T17:12:54.699Z,0.30
2019-01-20T17:15:26.100Z,0.30
2019-01-20T17:17:55.083Z,0.20
2019-01-20T17:20:24.525Z,0.20
2019-01-20T17:22:53.510Z,0.20
2019-01-20T17:25:22.477Z,0.20
2019-01-20T17:27:51.495Z,0.10
2019-01-20T17:30:22.703Z,0.10
2019-01-20T17:32:51.845Z,0.00
2019-01-20T17:35:20.896Z,0.00
2019-01-20T17:37:49.801Z,0.00
2019-01-20T17:40:21.046Z,0.00
2019-01-20T17:42:50.044Z,-0.10
2019-01-20T17:45:24.268Z,-0.10
2019-01-20T17:47:53.289Z,0.00
2019-01-20T17:50:24.624Z,-0.10
2019-01-20T17:52:53.814Z,-0.10
2019-01-20T17:55:22.891Z,-0.10
2019-01-20T17:57:51.816Z,-0.10
2019-01-20T18:00:23.713Z,-0.20
2019-01-20T18:02:52.741Z,-0.20
2019-01-20T18:05:23.089Z,-0.20
2019-01-20T18:07:52.175Z,-0.20
2019-01-20T18:10:21.236Z,-0.30
2019-01-20T18:12:50.288Z,-0.30
2019-01-20T18:15:19.836Z,-0.30
2019-01-20T18:17:48.860Z,-0.30
2019-01-20T18:20:19.896Z,-0.30
2019-01-20T18:22:48.872Z,-0.30
2019-01-20T18:25:18.079Z,-0.30
2019-01-20T18:27:47.055Z,-0.40
2019-01-20T18:30:18.946Z,-0.40
2019-01-20T18:32:47.991Z,-0.40
2019-01-20T18:35:17.326Z,-0.40
2019-01-20T18:37:46.434Z,-0.40
2019-01-20T18:40:16.933Z,-0.40
2019-01-20T18:42:46.097Z,-0.40
2019-01-20T18:45:17.199Z,-0.40
2019-01-20T18:47:46.197Z,-0.40
2019-01-20T18:50:17.603Z,-0.40
2019-01-20T18:52:47.286Z,-0.40
2019-01-20T18:55:16.526Z,-0.40
2019-01-20T18:57:45.646Z,-0.30
2019-01-20T19:00:21.121Z,-0.30
2019-01-20T19:02:50.115Z,-0.30
2019-01-20T19:05:19.291Z,-0.30
2019-01-20T19:07:48.285Z,-0.30
2019-01-20T19:10:17.815Z,-0.30
2019-01-20T19:12:49.085Z,-0.30
2019-01-20T19:15:18.659Z,-0.30
2019-01-20T19:17:47.585Z,-0.30
2019-01-20T19:20:18.505Z,-0.30
2019-01-20T19:22:48.221Z,-0.20
2019-01-20T19:25:17.417Z,-0.20
2019-01-20T19:27:46.503Z,-0.20
2019-01-20T19:30:34.592Z,-0.20
2019-01-20T19:33:03.581Z,-0.20
2019-01-20T19:35:32.616Z,-0.10
2019-01-20T19:38:06.843Z,-0.10
2019-01-20T19:40:36.029Z,-0.10
2019-01-20T19:43:05.359Z,-0.10
2019-01-20T19:45:34.421Z,-0.10
2019-01-20T19:48:03.451Z,0.00
2019-01-20T19:50:33.016Z,0.00
2019-01-20T19:53:01.882Z,0.00
2019-01-20T19:55:32.282Z,0.00
2019-01-20T19:58:01.444Z,0.00
2019-01-20T20:00:31.024Z,0.10
2019-01-20T20:03:00.237Z,0.10
2019-01-20T20:05:29.891Z,0.10
2019-01-20T20:07:58.956Z,0.10
2019-01-20T20:10:28.174Z,0.10
2019-01-20T20:12:59.255Z,0.00
2019-01-20T20:15:28.660Z,0.00
2019-01-20T20:17:57.613Z,0.00
2019-01-20T20:20:26.801Z,-0.10
2019-01-20T20:22:55.835Z,-0.10
2019-01-20T20:25:25.871Z,-0.10
2019-01-20T20:27:55.229Z,-0.20
2019-01-20T20:30:26.699Z,-0.20
2019-01-20T20:32:55.638Z,-0.20
2019-01-20T20:35:24.684Z,-0.20
2019-01-20T20:37:53.623Z,-0.20
2019-01-20T20:40:22.621Z,-0.30
2019-01-20T20:42:51.627Z,-0.30
2019-01-20T20:45:21.634Z,-0.40
2019-01-20T20:47:50.632Z,-0.40
2019-01-20T20:50:19.732Z,-0.40
2019-01-20T20:52:48.754Z,-0.50
2019-01-20T20:55:17.776Z,-0.50
2019-01-20T20:57:46.788Z,-0.50
2019-01-20T21:00:36.286Z,-0.60
2019-01-20T21:03:08.774Z,-0.70
2019-01-20T21:05:37.605Z,-0.70
2019-01-20T21:08:06.515Z,-0.70
2019-01-20T21:10:35.528Z,-0.80
2019-01-20T21:13:04.512Z,-0.80
2019-01-20T21:15:33.441Z,-0.90
2019-01-20T21:18:06.509Z,-0.90
2019-01-20T21:20:35.467Z,-1.00
2019-01-20T21:23:11.841Z,-1.10
2019-01-20T21:25:35.138Z,-1.10
2019-01-20T21:28:04.118Z,-1.10
2019-01-20T21:30:33.103Z,-1.20
2019-01-20T21:33:01.965Z,-1.20
2019-01-20T21:35:30.913Z,-1.30
2019-01-20T21:38:06.570Z,-1.20
2019-01-20T21:40:30.637Z,-1.30
2019-01-20T21:42:59.668Z,-1.30
2019-01-20T21:45:28.712Z,-1.30
2019-01-20T21:47:57.818Z,-1.40
2019-01-20T21:50:28.945Z,-1.40
2019-01-20T21:52:58.118Z,-1.40
2019-01-20T21:55:27.251Z,-1.50
2019-01-20T21:57:56.404Z,-1.50
2019-01-20T22:00:26.973Z,-1.50
2019-01-20T22:02:55.982Z,-1.60
2019-01-20T22:05:24.966Z,-1.60
2019-01-20T22:07:54.073Z,-1.60
2019-01-20T22:10:23.446Z,-1.60
2019-01-20T22:12:52.572Z,-1.70
2019-01-20T22:15:21.570Z,-1.70
2019-01-20T22:17:50.745Z,-1.70
2019-01-20T22:20:21.407Z,-1.70
2019-01-20T22:22:50.571Z,-1.80
2019-01-20T22:25:19.573Z,-1.80
2019-01-20T22:27:48.572Z,-1.90
2019-01-20T22:30:25.271Z,-1.90
2019-01-20T22:32:54.380Z,-1.90
2019-01-20T22:35:23.487Z,-2.00
2019-01-20T22:37:52.499Z,-2.00
2019-01-20T22:40:21.496Z,-2.00
2019-01-20T22:42:50.497Z,-2.10
2019-01-20T22:45:23.185Z,-2.10
2019-01-20T22:47:52.341Z,-2.10
2019-01-20T22:50:21.617Z,-2.10
2019-01-20T22:52:50.785Z,-2.10
2019-01-20T22:55:19.885Z,-2.20
2019-01-20T22:57:48.888Z,-2.20
2019-01-20T23:00:46.956Z,-2.20
2019-01-20T23:03:16.116Z,-2.20
2019-01-20T23:05:45.038Z,-2.20
2019-01-20T23:08:14.048Z,-2.20
2019-01-20T23:10:43.037Z,-2.20
2019-01-20T23:13:12.037Z,-2.30
2019-01-20T23:15:41.077Z,-2.30
2019-01-20T23:18:13.064Z,-2.30
2019-01-20T23:20:42.099Z,-2.30
2019-01-20T23:23:10.991Z,-2.40
2019-01-20T23:25:39.965Z,-2.40
2019-01-20T23:28:08.888Z,-2.40
2019-01-20T23:30:37.793Z,-2.40
2019-01-20T23:33:06.800Z,-2.40
2019-01-20T23:35:35.704Z,-2.40
2019-01-20T23:38:04.935Z,-2.40
2019-01-20T23:40:34.380Z,-2.40
2019-01-20T23:43:03.314Z,-2.50
2019-01-20T23:45:32.335Z,-2.50
2019-01-20T23:48:01.251Z,-2.50
2019-01-20T23:50:30.215Z,-2.50
2019-01-20T23:52:59.197Z,-2.60
2019-01-20T23:55:28.099Z,-2.60
2019-01-20T23:57:57.100Z,-2.60
